EPSC/SZZ METAR and TAF weather

Enter ICAO airport designator
Station Type Date Time Source
EPSC METAR 2020/06/05 11:30 UTC NOAA

EPSC 051130Z VRB02KT 9999 FEW026 SCT029 BKN032 15/10 Q0994


Station Type Date Time Source
EPSC Decoded METAR 2020/06/05 11:30 UTC NOAA

Szczecin, Poland (EPSC) 53-24N 014-37E 3M
Jun 05, 2020 - 07:30 AM EDT / 2020.06.05 1130 UTC
Wind: Variable at 2 MPH (2 KT):0
Visibility: greater than 7 mile(s):0
Sky conditions: mostly cloudy
Temperature: 59 F (15 C)
Dew Point: 50 F (10 C)
Relative Humidity: 72%
Pressure (altimeter): 29.35 in. Hg (0994 hPa)
ob: EPSC 051130Z VRB02KT 9999 FEW026 SCT029 BKN032 15/10 Q0994
cycle: 11

Station Type Date Time Source
EPSC TAF 2020/06/05 12:33 UTC NOAA

TAF EPSC 051130Z 0512/0612 25005KT 9999 SCT030
TEMPO 0512/0522 -SHRA BKN025CB
BECMG 0517/0520 18010KT PROB40
TEMPO 0518/0522 20015G27KT
TEMPO 0522/0603 -RA BKN008 BKN014 PROB40
TEMPO 0522/0612 25017G32KT
BECMG 0603/0606 24012KT

Example: see airport list